createdAt,value
2023-04-29T00:01:27.705Z,13.10
2023-04-29T00:04:30.628Z,12.35
2023-04-29T00:07:32.936Z,13.87
2023-04-29T00:10:35.605Z,14.25
2023-04-29T00:13:40.829Z,13.80
2023-04-29T00:16:43.549Z,12.07
2023-04-29T00:19:45.863Z,12.00
2023-04-29T00:22:49.469Z,12.50
2023-04-29T00:25:53.426Z,9.90
2023-04-29T00:28:55.852Z,11.38
2023-04-29T00:31:58.113Z,12.85
2023-04-29T00:35:00.604Z,10.95
2023-04-29T00:38:02.771Z,11.77
2023-04-29T00:41:05.944Z,10.82
2023-04-29T00:44:08.408Z,11.32
2023-04-29T00:47:11.659Z,10.60
2023-04-29T00:50:14.208Z,11.35
2023-04-29T00:53:17.319Z,9.68
2023-04-29T00:56:21.030Z,11.38
2023-04-29T00:59:24.100Z,12.35
2023-04-29T01:02:27.014Z,10.07
2023-04-29T01:05:29.632Z,11.38
2023-04-29T01:09:01.062Z,11.77
2023-04-29T01:12:29.617Z,14.68
2023-04-29T01:15:44.420Z,11.45
2023-04-29T01:18:52.440Z,15.45
2023-04-29T01:21:55.033Z,13.18
2023-04-29T01:24:57.603Z,10.68
2023-04-29T01:28:38.221Z,12.75
2023-04-29T01:31:49.243Z,11.68
2023-04-29T01:34:52.866Z,12.68
2023-04-29T01:38:18.579Z,10.85
2023-04-29T01:41:43.301Z,10.00
2023-04-29T01:44:48.947Z,9.75
2023-04-29T01:47:56.299Z,10.75
2023-04-29T01:50:58.972Z,8.98
2023-04-29T01:54:01.335Z,11.70
2023-04-29T01:57:04.448Z,10.80
2023-04-29T02:00:09.009Z,12.05
2023-04-29T02:03:15.183Z,8.50
2023-04-29T02:06:19.665Z,9.55
2023-04-29T02:09:22.667Z,10.18
2023-04-29T02:12:25.838Z,10.82
2023-04-29T02:15:29.350Z,10.63
2023-04-29T02:18:32.189Z,10.23
2023-04-29T02:21:35.271Z,10.95
2023-04-29T02:24:38.208Z,10.90
2023-04-29T02:27:42.705Z,9.73
2023-04-29T02:30:45.197Z,12.75
2023-04-29T02:33:47.471Z,11.55
2023-04-29T02:36:50.323Z,9.73
2023-04-29T02:39:55.966Z,8.70
2023-04-29T02:42:58.453Z,9.95
2023-04-29T02:46:03.365Z,8.80
2023-04-29T02:49:05.874Z,8.40
2023-04-29T02:52:08.401Z,11.75
2023-04-29T02:55:10.933Z,8.93
2023-04-29T02:58:13.057Z,11.27
2023-04-29T03:01:15.570Z,9.75
2023-04-29T03:04:17.974Z,9.50
2023-04-29T03:07:20.877Z,9.17
2023-04-29T03:10:23.199Z,9.23
2023-04-29T03:13:25.772Z,10.10
2023-04-29T03:16:29.237Z,8.50
2023-04-29T03:19:31.832Z,10.57
2023-04-29T03:22:34.962Z,11.25
2023-04-29T03:25:37.633Z,9.48
2023-04-29T03:28:39.844Z,9.30
2023-04-29T03:31:42.480Z,10.30
2023-04-29T03:34:45.021Z,10.32
2023-04-29T03:40:51.087Z,9.13
2023-04-29T03:43:54.848Z,11.02
2023-04-29T03:46:57.041Z,10.38
2023-04-29T03:49:59.590Z,10.05
2023-04-29T03:53:01.880Z,11.93
2023-04-29T03:56:04.768Z,11.25
2023-04-29T03:59:07.400Z,9.10
2023-04-29T04:02:10.305Z,9.38
2023-04-29T04:05:13.069Z,7.57
2023-04-29T04:08:16.483Z,10.05
2023-04-29T04:11:20.716Z,10.10
2023-04-29T04:14:23.292Z,12.98
2023-04-29T04:17:25.958Z,9.33
2023-04-29T04:20:28.071Z,8.05
2023-04-29T04:23:30.606Z,8.82
2023-04-29T04:26:33.607Z,10.60
2023-04-29T04:29:36.700Z,9.45
2023-04-29T04:32:40.109Z,9.55
2023-04-29T04:35:43.330Z,9.20
2023-04-29T04:38:45.869Z,11.23
2023-04-29T04:41:48.459Z,10.88
2023-04-29T04:44:50.620Z,12.20
2023-04-29T04:47:54.946Z,12.05
2023-04-29T04:50:57.615Z,9.80
2023-04-29T04:54:00.123Z,11.95
2023-04-29T04:57:05.990Z,9.60
2023-04-29T05:00:09.179Z,10.20
2023-04-29T05:03:11.646Z,10.00
2023-04-29T05:06:14.675Z,10.13
2023-04-29T05:09:17.299Z,11.38
2023-04-29T05:12:20.008Z,12.63
2023-04-29T05:15:22.243Z,11.48
2023-04-29T05:18:25.428Z,12.63
2023-04-29T05:21:27.603Z,10.68
2023-04-29T05:24:30.738Z,10.00
2023-04-29T05:27:32.977Z,15.70
2023-04-29T05:30:35.824Z,10.43
2023-04-29T05:33:38.037Z,10.50
2023-04-29T05:36:40.634Z,9.73
2023-04-29T05:39:42.829Z,10.63
2023-04-29T05:42:47.099Z,13.27
2023-04-29T05:45:49.518Z,11.45
2023-04-29T05:48:52.070Z,13.23
2023-04-29T05:51:54.480Z,10.73
2023-04-29T05:54:57.811Z,11.57
2023-04-29T05:58:00.197Z,11.12
2023-04-29T06:01:03.216Z,10.07
2023-04-29T06:04:06.139Z,10.57
2023-04-29T06:07:09.389Z,10.57
2023-04-29T06:10:13.413Z,11.73
2023-04-29T06:13:16.240Z,25.87
2023-04-29T06:16:18.842Z,12.60
2023-04-29T06:19:21.332Z,10.63
2023-04-29T06:22:23.971Z,10.30
2023-04-29T06:25:26.332Z,12.48
2023-04-29T06:28:29.964Z,10.75
2023-04-29T06:31:32.446Z,14.20
2023-04-29T06:34:36.076Z,11.40
2023-04-29T06:37:42.589Z,11.88
2023-04-29T06:40:45.765Z,10.07
2023-04-29T06:43:49.036Z,13.80
2023-04-29T06:46:51.683Z,10.98
2023-04-29T06:49:54.866Z,11.65
2023-04-29T06:52:57.650Z,9.23
2023-04-29T06:55:59.804Z,10.70
2023-04-29T06:59:02.321Z,10.32
2023-04-29T07:02:04.506Z,12.18
2023-04-29T07:05:07.605Z,11.38
2023-04-29T07:11:13.803Z,11.50
2023-04-29T07:14:16.160Z,12.07
2023-04-29T07:17:18.942Z,11.52
2023-04-29T07:23:25.062Z,11.60
2023-04-29T07:26:27.278Z,9.52
2023-04-29T07:29:29.803Z,9.85
2023-04-29T07:32:32.875Z,12.05
2023-04-29T07:35:37.955Z,12.40
2023-04-29T07:38:40.300Z,11.82
2023-04-29T07:41:42.784Z,12.00
2023-04-29T07:44:47.905Z,13.13
2023-04-29T07:47:50.381Z,8.80
2023-04-29T07:50:52.628Z,10.05
2023-04-29T07:53:55.073Z,10.25
2023-04-29T07:57:01.484Z,9.75
2023-04-29T08:00:04.376Z,11.80
2023-04-29T08:03:16.689Z,10.73
2023-04-29T08:06:22.053Z,10.20
2023-04-29T08:09:24.197Z,11.00
2023-04-29T08:12:26.617Z,11.45
2023-04-29T08:15:29.505Z,10.95
2023-04-29T08:18:31.975Z,13.40
2023-04-29T08:21:34.861Z,10.90
2023-04-29T08:24:37.659Z,10.57
2023-04-29T08:27:39.915Z,10.15
2023-04-29T08:30:42.531Z,10.45
2023-04-29T08:33:44.683Z,10.15
2023-04-29T08:36:47.087Z,13.13
2023-04-29T08:39:49.296Z,11.57
2023-04-29T08:42:53.530Z,8.90
2023-04-29T08:45:59.107Z,10.45
2023-04-29T08:49:04.100Z,12.48
2023-04-29T08:52:06.431Z,10.48
2023-04-29T08:55:09.255Z,12.52
2023-04-29T08:58:12.877Z,11.73
2023-04-29T09:01:15.468Z,11.70
2023-04-29T09:04:41.838Z,11.27
2023-04-29T09:07:45.976Z,13.13
2023-04-29T09:10:48.539Z,11.60
2023-04-29T09:13:50.932Z,9.68
2023-04-29T09:16:53.210Z,10.93
2023-04-29T09:19:57.075Z,11.53
2023-04-29T09:26:06.591Z,10.80
2023-04-29T09:29:16.292Z,10.32
2023-04-29T09:32:22.715Z,12.35
2023-04-29T09:35:27.168Z,10.85
2023-04-29T09:38:29.609Z,11.43
2023-04-29T09:41:32.268Z,11.15
2023-04-29T09:44:38.283Z,9.25
2023-04-29T09:47:40.609Z,9.93
2023-04-29T09:50:45.083Z,22.80
2023-04-29T09:53:47.233Z,10.35
2023-04-29T09:56:52.092Z,9.65
2023-04-29T09:59:54.208Z,8.27
2023-04-29T10:02:58.679Z,8.77
2023-04-29T10:06:03.657Z,10.15
2023-04-29T10:09:07.251Z,8.50
2023-04-29T10:12:10.050Z,11.43
2023-04-29T10:15:12.544Z,8.13
2023-04-29T10:18:21.310Z,9.68
2023-04-29T10:21:29.425Z,11.23
2023-04-29T10:24:34.471Z,8.23
2023-04-29T10:27:37.667Z,9.50
2023-04-29T10:30:43.720Z,7.90
2023-04-29T10:33:47.815Z,8.45
2023-04-29T10:36:51.059Z,9.82
2023-04-29T10:40:05.019Z,8.77
2023-04-29T10:43:08.285Z,7.95
2023-04-29T10:46:16.495Z,8.15
2023-04-29T10:49:18.982Z,8.45
2023-04-29T10:52:21.367Z,8.55
2023-04-29T10:55:24.844Z,7.20
2023-04-29T10:58:44.013Z,10.95
2023-04-29T11:01:46.580Z,9.30
2023-04-29T11:05:07.903Z,8.47
2023-04-29T11:08:16.472Z,10.13
2023-04-29T11:11:18.653Z,9.45
2023-04-29T11:14:24.777Z,8.33
2023-04-29T11:17:28.328Z,9.18
2023-04-29T11:20:30.984Z,7.90
2023-04-29T11:23:45.134Z,7.43
2023-04-29T11:26:48.928Z,8.60
2023-04-29T11:29:58.297Z,7.93
2023-04-29T11:33:01.335Z,8.43
2023-04-29T11:36:03.946Z,7.87
2023-04-29T11:39:06.653Z,8.50
2023-04-29T11:42:08.797Z,7.07
2023-04-29T11:45:12.127Z,8.47
2023-04-29T11:48:24.740Z,8.20
2023-04-29T11:51:28.606Z,8.18
2023-04-29T11:54:31.026Z,8.00
2023-04-29T11:57:33.488Z,6.45
2023-04-29T12:00:36.115Z,7.72
2023-04-29T12:03:38.691Z,11.40
2023-04-29T12:06:42.040Z,7.65
2023-04-29T12:09:45.741Z,8.68
2023-04-29T12:12:49.151Z,9.45
2023-04-29T12:15:52.663Z,8.38
2023-04-29T12:18:55.868Z,9.38
2023-04-29T12:22:03.246Z,8.02
2023-04-29T12:25:07.316Z,8.75
2023-04-29T12:28:13.470Z,7.37
2023-04-29T12:31:16.150Z,10.25
2023-04-29T12:34:25.860Z,7.07
2023-04-29T12:37:28.170Z,9.30
2023-04-29T12:40:32.444Z,7.60
2023-04-29T12:43:34.929Z,7.28
2023-04-29T12:46:39.258Z,9.43
2023-04-29T12:49:45.535Z,9.35
2023-04-29T12:52:49.220Z,7.62
2023-04-29T12:55:52.274Z,8.65
2023-04-29T12:58:54.786Z,8.05
2023-04-29T13:01:57.198Z,7.43
2023-04-29T13:04:59.950Z,7.07
2023-04-29T13:08:02.884Z,10.27
2023-04-29T13:11:05.758Z,8.70
2023-04-29T13:14:08.030Z,7.57
2023-04-29T13:17:11.141Z,8.18
2023-04-29T13:20:15.287Z,7.32
2023-04-29T13:23:17.860Z,9.68
2023-04-29T13:26:20.069Z,8.43
2023-04-29T13:29:22.659Z,9.85
2023-04-29T13:32:25.302Z,8.35
2023-04-29T13:35:27.795Z,7.12
2023-04-29T13:38:30.967Z,8.75
2023-04-29T13:41:35.597Z,8.27
2023-04-29T13:44:51.848Z,6.85
2023-04-29T13:48:07.338Z,8.63
2023-04-29T13:58:20.639Z,6.97
2023-04-29T14:03:56.071Z,8.07
2023-04-29T14:06:58.298Z,6.67
2023-04-29T14:10:01.064Z,7.60
2023-04-29T14:13:03.222Z,6.90
2023-04-29T14:16:06.982Z,6.30
2023-04-29T14:19:09.465Z,6.32
2023-04-29T14:22:12.063Z,5.35
2023-04-29T14:25:14.320Z,7.20
2023-04-29T14:28:16.751Z,7.30
2023-04-29T14:31:18.963Z,7.87
2023-04-29T14:34:21.507Z,6.72
2023-04-29T14:37:23.701Z,8.40
2023-04-29T14:40:26.196Z,6.30
2023-04-29T14:43:28.972Z,7.18
2023-04-29T14:46:32.363Z,6.90
2023-04-29T14:49:34.599Z,6.68
2023-04-29T14:52:37.113Z,7.00
2023-04-29T14:55:39.236Z,10.10
2023-04-29T14:58:41.634Z,8.95
2023-04-29T15:01:44.068Z,8.05
2023-04-29T15:04:46.946Z,7.93
2023-04-29T15:07:49.149Z,7.40
2023-04-29T15:10:51.681Z,7.80
2023-04-29T15:13:53.792Z,7.40
2023-04-29T15:16:56.545Z,10.10
2023-04-29T15:19:58.908Z,10.77
2023-04-29T15:23:01.627Z,8.20
2023-04-29T15:26:03.969Z,8.43
2023-04-29T15:29:06.585Z,7.87
2023-04-29T15:32:10.560Z,8.15
2023-04-29T15:35:13.110Z,8.15
2023-04-29T15:38:15.295Z,7.50
2023-04-29T15:41:17.853Z,8.03
2023-04-29T15:44:19.987Z,7.72
2023-04-29T15:47:22.728Z,7.33
2023-04-29T15:50:24.967Z,12.37
2023-04-29T15:53:27.363Z,8.07
2023-04-29T15:56:34.003Z,7.45
2023-04-29T15:59:36.523Z,8.63
2023-04-29T16:02:38.926Z,7.25
2023-04-29T16:05:41.492Z,8.30
2023-04-29T16:08:43.660Z,7.70
2023-04-29T16:11:46.258Z,8.07
2023-04-29T16:14:48.468Z,8.60
2023-04-29T16:17:51.881Z,8.27
2023-04-29T16:20:54.215Z,7.95
2023-04-29T16:23:56.695Z,8.67
2023-04-29T16:26:59.256Z,7.55
2023-04-29T16:30:02.208Z,7.40
2023-04-29T16:33:06.162Z,8.53
2023-04-29T16:36:08.630Z,7.87
2023-04-29T16:39:10.859Z,7.20
2023-04-29T16:42:13.556Z,10.17
2023-04-29T16:45:15.830Z,9.05
2023-04-29T16:48:18.419Z,8.93
2023-04-29T16:51:20.513Z,9.50
2023-04-29T16:54:23.511Z,6.53
2023-04-29T16:57:26.557Z,6.60
2023-04-29T17:00:29.077Z,7.05
2023-04-29T17:03:31.298Z,9.90
2023-04-29T17:06:34.725Z,13.37
2023-04-29T17:09:36.990Z,8.00
2023-04-29T17:12:39.513Z,8.98
2023-04-29T17:15:41.832Z,8.43
2023-04-29T17:18:44.328Z,8.83
2023-04-29T17:21:46.825Z,12.10
2023-04-29T17:24:50.776Z,10.00
2023-04-29T17:27:52.975Z,10.45
2023-04-29T17:30:59.654Z,9.70
2023-04-29T17:34:18.339Z,8.50
2023-04-29T17:37:25.668Z,8.85
2023-04-29T17:40:27.952Z,7.78
2023-04-29T17:43:33.213Z,9.88
2023-04-29T17:46:36.660Z,10.00
2023-04-29T17:49:39.176Z,9.90
2023-04-29T17:52:41.672Z,9.18
2023-04-29T17:55:44.868Z,8.47
2023-04-29T17:58:47.438Z,10.27
2023-04-29T18:01:50.036Z,11.73
2023-04-29T18:04:52.494Z,11.32
2023-04-29T18:07:54.734Z,10.10
2023-04-29T18:10:57.184Z,8.10
2023-04-29T18:13:59.437Z,8.65
2023-04-29T18:17:02.038Z,8.93
2023-04-29T18:20:06.162Z,8.38
2023-04-29T18:23:08.647Z,8.02
2023-04-29T18:26:11.041Z,10.70
2023-04-29T18:29:13.489Z,9.97
2023-04-29T18:32:15.714Z,13.73
2023-04-29T18:35:18.139Z,9.70
2023-04-29T18:38:20.264Z,10.10
2023-04-29T18:41:22.732Z,11.12
2023-04-29T18:44:26.184Z,11.23
2023-04-29T18:47:29.179Z,10.90
2023-04-29T18:50:31.740Z,10.70
2023-04-29T18:53:34.454Z,9.63
2023-04-29T18:56:38.813Z,9.63
2023-04-29T18:59:42.580Z,11.43
2023-04-29T19:02:45.043Z,9.80
2023-04-29T19:05:48.203Z,10.85
2023-04-29T19:08:50.339Z,13.48
2023-04-29T19:11:52.819Z,13.27
2023-04-29T19:14:54.966Z,9.30
2023-04-29T19:17:57.523Z,9.15
2023-04-29T19:21:00.327Z,10.48
2023-04-29T19:24:02.826Z,10.80
2023-04-29T19:27:06.110Z,12.27
2023-04-29T19:33:10.791Z,10.05
2023-04-29T19:36:14.248Z,9.43
2023-04-29T19:39:17.016Z,13.65
2023-04-29T19:42:19.529Z,10.90
2023-04-29T19:45:21.746Z,9.50
2023-04-29T19:48:24.160Z,10.70
2023-04-29T19:51:26.754Z,12.98
2023-04-29T19:54:29.477Z,12.82
2023-04-29T19:57:32.023Z,12.50
2023-04-29T20:00:34.810Z,11.90
2023-04-29T20:03:39.316Z,13.65
2023-04-29T20:06:41.832Z,10.43
2023-04-29T20:09:45.671Z,13.13
2023-04-29T20:12:47.819Z,11.18
2023-04-29T20:15:50.233Z,12.75
2023-04-29T20:18:52.367Z,11.77
2023-04-29T20:21:54.854Z,12.43
2023-04-29T20:24:57.053Z,16.27
2023-04-29T20:27:59.474Z,13.57
2023-04-29T20:31:01.705Z,12.90
2023-04-29T20:34:04.212Z,14.35
2023-04-29T20:37:07.401Z,12.55
2023-04-29T20:40:10.383Z,13.10
2023-04-29T20:43:12.727Z,13.77
2023-04-29T20:46:16.300Z,11.15
2023-04-29T20:49:19.231Z,12.45
2023-04-29T20:52:21.677Z,9.90
2023-04-29T20:55:24.056Z,14.38
2023-04-29T20:58:26.560Z,10.63
2023-04-29T21:01:29.224Z,12.57
2023-04-29T21:04:31.812Z,13.40
2023-04-29T21:07:33.997Z,12.65
2023-04-29T21:10:36.452Z,12.88
2023-04-29T21:13:38.687Z,11.50
2023-04-29T21:16:41.384Z,12.65
2023-04-29T21:19:43.543Z,14.23
2023-04-29T21:22:46.074Z,12.43
2023-04-29T21:25:48.563Z,13.05
2023-04-29T21:28:51.175Z,12.33
2023-04-29T21:31:53.400Z,12.32
2023-04-29T21:34:55.891Z,11.45
2023-04-29T21:37:58.013Z,12.07
2023-04-29T21:41:00.918Z,14.50
2023-04-29T21:44:04.491Z,11.18
2023-04-29T21:47:08.081Z,11.48
2023-04-29T21:50:11.293Z,12.77
2023-04-29T21:53:16.445Z,14.13
2023-04-29T21:56:19.378Z,13.38
2023-04-29T21:59:21.840Z,15.35
2023-04-29T22:02:25.625Z,10.73
2023-04-29T22:05:28.144Z,12.77
2023-04-29T22:08:30.387Z,14.60
2023-04-29T22:11:33.215Z,13.40
2023-04-29T22:14:35.402Z,13.07
2023-04-29T22:17:37.905Z,13.05
2023-04-29T22:20:40.157Z,14.77
2023-04-29T22:23:42.845Z,12.23
2023-04-29T22:26:45.027Z,15.65
2023-04-29T22:29:47.633Z,14.50
2023-04-29T22:32:49.839Z,14.32
2023-04-29T22:35:52.387Z,13.68
2023-04-29T22:38:54.541Z,17.98
2023-04-29T22:41:57.030Z,15.13
2023-04-29T22:44:59.180Z,15.95
2023-04-29T22:48:01.659Z,13.60
2023-04-29T22:51:03.938Z,16.25
2023-04-29T22:54:07.607Z,15.13
2023-04-29T22:57:09.789Z,16.00
2023-04-29T23:00:13.040Z,14.98
2023-04-29T23:03:15.245Z,15.80
2023-04-29T23:06:17.770Z,17.95
2023-04-29T23:09:19.906Z,13.88
2023-04-29T23:12:22.542Z,12.10
2023-04-29T23:15:26.194Z,13.32
2023-04-29T23:18:28.599Z,12.60
2023-04-29T23:21:31.256Z,17.10
2023-04-29T23:24:36.571Z,16.50
2023-04-29T23:27:38.722Z,14.23
2023-04-29T23:30:41.161Z,16.42
2023-04-29T23:33:43.460Z,14.07
2023-04-29T23:36:45.920Z,16.70
2023-04-29T23:39:48.109Z,16.92
2023-04-29T23:42:50.586Z,12.65
2023-04-29T23:45:52.969Z,14.90
2023-04-29T23:48:55.538Z,15.80
2023-04-29T23:51:57.677Z,13.02
2023-04-29T23:55:00.220Z,12.43
2023-04-29T23:58:02.381Z,14.43
